Vohburg — V2OW7 — position and weather

sailwx.info

Track history (hours):
 
Tides and Currents Weather Stations Pressure Air Temp Water Temp Dewpoint Dewpoint Depression Visibility Wind Speed Wind Dir Waves Ship Positions

Vohburg

Last reported at 2014-Dec-18 12:33 UTC. Time now 2014-Dec-18 17:24 UTC.
Position N 57°47' E 010°29'.

Length 140 m; draft 6.7 m.

Type: Ship (hazmat cat A). MMSI: 305773000.

Date/timePositionNaut miles runAvg speedWind from/ knotsBaromVisibWave heightAir tempDewpointWater temp
2014-Dec-18 12:33N 57°47' E 010°29'1515.4
2014-Dec-18 11:33N 57°43' E 010°56'1817.7
2014-Dec-18 10:33N 57°31' E 011°20'1717.1
2014-Dec-18 09:33N 57°15' E 011°34'1717.3
2014-Dec-18 08:33N 56°59' E 011°45'1717.0
2014-Dec-18 07:33N 56°43' E 011°55'3416.9
2014-Dec-18 05:33N 56°14' E 012°25'1616.5
2014-Dec-18 04:33N 55°60' E 012°42'1515.2
2014-Dec-18 03:33N 55°45' E 012°41'1413.9
2014-Dec-18 02:34N 55°31' E 012°42'1413.7
2014-Dec-18 01:34N 55°17' E 012°45'1616.3
2014-Dec-18 00:34N 55°15' E 013°13'1716.7
2014-Dec-17 23:33N 55°15' E 013°43'1616.0
2014-Dec-17 22:33N 55°14' E 014°11'1616.1
2014-Dec-17 21:33N 55°24' E 014°33'1616.4
2014-Dec-17 20:33N 55°29' E 015°01'1717.3
2014-Dec-17 19:33N 55°33' E 015°30'354 8.6
2014-Dec-16 02:33N 59°39' E 023°26'1815.2
2014-Dec-16 01:22N 59°44' E 023°60'1315.8
2014-Dec-16 00:31N 59°47' E 024°25'59 3.2
2014-Dec-15 06:23N 59°60' E 026°20'1315.8
2014-Dec-15 05:33N 60°01' E 026°45'2 0.1
2014-Dec-13 20:32N 59°59' E 026°44'6312.0
2014-Dec-13 15:17N 59°46' E 024°41'912.4
2014-Dec-13 14:34N 59°44' E 024°23'2512.4
2014-Dec-13 12:31N 59°35' E 023°36'35512.6
2014-Dec-12 08:25N 55°37' E 015°24'1112.9
2014-Dec-12 07:34N 55°32' E 015°07'1514.6
2014-Dec-12 06:33N 55°25' E 014°44'1312.9
2014-Dec-12 05:34N 55°16' E 014°28'1313.0
2014-Dec-12 04:33N 55°06' E 014°14'1212.3
2014-Dec-12 03:34N 54°58' E 013°57'6412.8
2014-Dec-11 22:34N 54°31' E 012°17'1313.0
2014-Dec-11 21:33N 54°22' E 012°00'32 1.8
2014-Dec-11 04:10N 54°09' E 011°11'11112.2
2014-Dec-10 19:06N 55°57' E 010°29'814.1
2014-Dec-10 18:33N 56°04' E 010°23'7 2.4
2014-Dec-10 15:31N 56°09' E 010°14'0 0.0
2014-Dec-10 09:13N 56°09' E 010°14'0 0.0
2014-Dec-10 08:31N 56°09' E 010°14'0 0.0
2014-Dec-10 07:25N 56°09' E 010°14'0 0.0
2014-Dec-09 20:31N 56°09' E 010°14'0 0.0
2014-Dec-09 19:16N 56°09' E 010°14'0 0.0
2014-Dec-09 18:31N 56°09' E 010°14'0 0.0
2014-Dec-09 17:33N 56°09' E 010°14'0 0.0
2014-Dec-09 16:30N 56°09' E 010°14'  
Track history (hours):
 
Tides and Currents Weather Stations Pressure Air Temp Water Temp Dewpoint Dewpoint Depression Visibility Wind Speed Wind Dir Waves Ship Positions

Vohburg

Last reported at 2014-Dec-18 12:33 UTC. Time now 2014-Dec-18 17:24 UTC.
Position N 57°47' E 010°29'.

Length 140 m; draft 6.7 m.

Type: Ship (hazmat cat A). MMSI: 305773000.

Date/timePositionNaut miles runAvg speedWind from/ knotsBaromVisibWave heightAir tempDewpointWater temp
2014-Dec-18 12:33N 57°47' E 010°29'1515.4
2014-Dec-18 11:33N 57°43' E 010°56'1817.7
2014-Dec-18 10:33N 57°31' E 011°20'1717.1
2014-Dec-18 09:33N 57°15' E 011°34'1717.3
2014-Dec-18 08:33N 56°59' E 011°45'1717.0
2014-Dec-18 07:33N 56°43' E 011°55'3416.9
2014-Dec-18 05:33N 56°14' E 012°25'1616.5
2014-Dec-18 04:33N 55°60' E 012°42'1515.2
2014-Dec-18 03:33N 55°45' E 012°41'1413.9
2014-Dec-18 02:34N 55°31' E 012°42'1413.7
2014-Dec-18 01:34N 55°17' E 012°45'1616.3
2014-Dec-18 00:34N 55°15' E 013°13'1716.7
2014-Dec-17 23:33N 55°15' E 013°43'1616.0
2014-Dec-17 22:33N 55°14' E 014°11'1616.1
2014-Dec-17 21:33N 55°24' E 014°33'1616.4
2014-Dec-17 20:33N 55°29' E 015°01'1717.3
2014-Dec-17 19:33N 55°33' E 015°30'354 8.6
2014-Dec-16 02:33N 59°39' E 023°26'1815.2
2014-Dec-16 01:22N 59°44' E 023°60'1315.8
2014-Dec-16 00:31N 59°47' E 024°25'59 3.2
2014-Dec-15 06:23N 59°60' E 026°20'1315.8
2014-Dec-15 05:33N 60°01' E 026°45'2 0.1
2014-Dec-13 20:32N 59°59' E 026°44'6312.0
2014-Dec-13 15:17N 59°46' E 024°41'912.4
2014-Dec-13 14:34N 59°44' E 024°23'2512.4
2014-Dec-13 12:31N 59°35' E 023°36'35512.6
2014-Dec-12 08:25N 55°37' E 015°24'1112.9
2014-Dec-12 07:34N 55°32' E 015°07'1514.6
2014-Dec-12 06:33N 55°25' E 014°44'1312.9
2014-Dec-12 05:34N 55°16' E 014°28'1313.0
2014-Dec-12 04:33N 55°06' E 014°14'1212.3
2014-Dec-12 03:34N 54°58' E 013°57'6412.8
2014-Dec-11 22:34N 54°31' E 012°17'1313.0
2014-Dec-11 21:33N 54°22' E 012°00'32 1.8
2014-Dec-11 04:10N 54°09' E 011°11'11112.2
2014-Dec-10 19:06N 55°57' E 010°29'814.1
2014-Dec-10 18:33N 56°04' E 010°23'7 2.4
2014-Dec-10 15:31N 56°09' E 010°14'0 0.0
2014-Dec-10 09:13N 56°09' E 010°14'0 0.0
2014-Dec-10 08:31N 56°09' E 010°14'0 0.0
2014-Dec-10 07:25N 56°09' E 010°14'0 0.0
2014-Dec-09 20:31N 56°09' E 010°14'0 0.0
2014-Dec-09 19:16N 56°09' E 010°14'0 0.0
2014-Dec-09 18:31N 56°09' E 010°14'0 0.0
2014-Dec-09 17:33N 56°09' E 010°14'0 0.0
2014-Dec-09 16:30N 56°09' E 010°14'  

Dump ship's entire track history